Time;durP1;ratioP1;P1;durP2;ratioP2;P2;SDS_P1;SDS_P2;PMS_P1;PMS_P2;Temp;Humidity;BMP_temperature;BMP_pressure;BME280_temperature;BME280_humidity;BME280_pressure;Samples;Min_cycle;Max_cycle;Signal;HPM_P1;HPM_P2
2022/04/28 00:01:00;;;;;;;10.07;3.85;;;12.10;88.00;;;;;;5047774;28;20591;-34
2022/04/28 00:03:28;;;;;;;7.57;3.83;;;12.10;88.10;;;;;;5044835;28;20218;-34
2022/04/28 00:05:57;;;;;;;7.27;3.43;;;12.00;88.10;;;;;;5037690;28;20216;-34
2022/04/28 00:08:25;;;;;;;8.30;4.10;;;12.00;88.20;;;;;;5040321;28;20295;-34
2022/04/28 00:10:52;;;;;;;7.87;3.63;;;12.00;88.10;;;;;;5030801;28;20220;-34
2022/04/28 00:13:22;;;;;;;8.30;3.58;;;11.90;88.10;;;;;;5040890;28;20304;-35
2022/04/28 00:15:52;;;;;;;8.10;3.83;;;11.90;88.10;;;;;;5037727;28;20203;-35
2022/04/28 00:18:19;;;;;;;7.13;3.77;;;11.90;88.10;;;;;;5045185;28;21095;-34
2022/04/28 00:20:46;;;;;;;8.00;3.23;;;11.90;88.10;;;;;;5048436;28;20228;-35
2022/04/28 00:23:14;;;;;;;10.33;4.00;;;11.80;88.20;;;;;;5039229;28;20232;-34
2022/04/28 00:25:41;;;;;;;9.27;3.93;;;11.80;88.10;;;;;;5040842;28;20299;-35
2022/04/28 00:28:10;;;;;;;7.20;4.10;;;11.80;88.20;;;;;;5036510;28;20234;-34
2022/04/28 00:30:40;;;;;;;10.43;4.07;;;11.80;88.20;;;;;;5047125;28;20596;-34
2022/04/28 00:33:13;;;;;;;6.27;3.43;;;11.70;88.30;;;;;;5047463;28;20674;-34
2022/04/28 00:35:40;;;;;;;7.50;3.60;;;11.70;88.10;;;;;;5048008;28;20226;-35
2022/04/28 00:38:07;;;;;;;9.23;3.93;;;11.70;88.40;;;;;;5046276;28;20286;-34
2022/04/28 00:40:34;;;;;;;6.10;3.60;;;11.70;88.20;;;;;;5037275;28;20223;-34
2022/04/28 00:43:20;;;;;;;8.70;4.17;;;11.60;88.00;;;;;;5029330;28;20228;-34
2022/04/28 00:45:48;;;;;;;9.40;3.80;;;11.60;88.00;;;;;;5033866;28;20204;-34
2022/04/28 00:51:05;;;;;;;9.40;3.60;;;11.50;88.20;;;;;;5028375;28;20224;-34
2022/04/28 00:53:43;;;;;;;6.97;3.53;;;11.50;88.50;;;;;;5027585;28;20528;-35
2022/04/28 00:56:13;;;;;;;8.97;4.00;;;11.50;88.40;;;;;;5028861;28;20228;-35
2022/04/28 00:58:40;;;;;;;7.77;3.87;;;11.40;88.30;;;;;;5033418;28;20209;-35
2022/04/28 01:01:08;;;;;;;7.00;3.80;;;11.40;88.40;;;;;;5044036;28;20214;-35
2022/04/28 01:03:38;;;;;;;6.07;3.57;;;11.40;88.20;;;;;;5044422;28;20220;-35
2022/04/28 01:06:05;;;;;;;6.60;3.77;;;11.30;88.10;;;;;;5046897;28;20215;-35
2022/04/28 01:08:33;;;;;;;6.83;4.00;;;11.30;88.10;;;;;;5041909;28;20217;-35
2022/04/28 01:11:01;;;;;;;9.40;3.97;;;11.30;88.20;;;;;;5037152;28;20698;-35
2022/04/28 01:13:29;;;;;;;8.73;3.90;;;11.20;88.10;;;;;;5045667;28;20465;-35
2022/04/28 01:15:56;;;;;;;5.80;3.77;;;11.20;88.10;;;;;;5046734;28;20270;-34
2022/04/28 01:18:23;;;;;;;10.23;4.20;;;11.20;88.10;;;;;;5041001;28;20223;-34
2022/04/28 01:20:51;;;;;;;7.33;4.20;;;11.10;88.10;;;;;;5047870;28;20231;-35
2022/04/28 01:23:18;;;;;;;10.57;4.30;;;11.10;88.40;;;;;;5045118;28;20204;-35
2022/04/28 01:25:45;;;;;;;8.50;3.90;;;11.10;88.20;;;;;;5038723;28;20265;-34
2022/04/28 01:28:13;;;;;;;9.90;4.77;;;11.10;88.30;;;;;;5042448;28;20270;-34
2022/04/28 01:30:40;;;;;;;8.50;4.20;;;11.00;88.40;;;;;;5037510;28;20269;-34
2022/04/28 01:33:07;;;;;;;7.53;4.60;;;11.00;88.40;;;;;;5040167;28;20204;-34
2022/04/28 01:35:37;;;;;;;11.73;4.17;;;11.00;88.40;;;;;;5045598;28;20200;-35
2022/04/28 01:38:04;;;;;;;8.30;4.33;;;11.00;88.20;;;;;;5050819;28;20239;-34
2022/04/28 01:40:32;;;;;;;8.37;4.10;;;10.90;88.40;;;;;;5034673;28;20204;-34
2022/04/28 01:42:59;;;;;;;8.77;4.47;;;10.90;88.10;;;;;;5029362;28;20249;-34
2022/04/28 01:45:26;;;;;;;11.00;4.57;;;10.90;88.50;;;;;;5035178;28;20209;-34
2022/04/28 01:47:53;;;;;;;9.70;4.77;;;10.80;88.30;;;;;;5033323;28;20618;-34
2022/04/28 01:50:21;;;;;;;8.93;4.60;;;10.80;88.30;;;;;;5035193;28;20666;-34
2022/04/28 01:55:34;;;;;;;8.40;4.40;;;10.80;88.30;;;;;;5028933;28;20659;-34
2022/04/28 01:58:01;;;;;;;9.77;4.50;;;10.70;88.30;;;;;;5044883;28;20209;-34
2022/04/28 02:00:29;;;;;;;7.78;4.10;;;10.70;88.10;;;;;;5047699;28;20204;-34
2022/04/28 02:02:56;;;;;;;8.73;4.47;;;10.70;88.10;;;;;;5047945;28;20226;-35
2022/04/28 02:05:24;;;;;;;7.07;4.47;;;10.70;88.40;;;;;;5036864;28;20216;-34
2022/04/28 02:07:53;;;;;;;8.60;4.77;;;10.60;88.00;;;;;;5031693;28;20213;-34
2022/04/28 02:10:21;;;;;;;10.47;4.97;;;10.60;88.50;;;;;;5037148;28;20876;-35
2022/04/28 02:12:52;;;;;;;8.47;4.27;;;10.60;88.30;;;;;;5030536;28;21119;-34
2022/04/28 02:15:19;;;;;;;10.87;4.40;;;10.60;88.30;;;;;;5030112;28;20552;-34
2022/04/28 02:17:46;;;;;;;9.60;4.57;;;10.50;88.40;;;;;;5028084;28;20631;-35
2022/04/28 02:20:14;;;;;;;7.87;4.43;;;10.50;88.20;;;;;;5033391;28;20336;-36
2022/04/28 02:22:43;;;;;;;9.83;5.10;;;10.50;88.90;;;;;;5043491;28;20299;-35
2022/04/28 02:25:11;;;;;;;9.37;4.67;;;10.40;88.10;;;;;;5043379;28;20291;-35
2022/04/28 02:27:38;;;;;;;8.80;4.93;;;10.40;88.10;;;;;;5043727;28;20551;-35
2022/04/28 02:30:06;;;;;;;7.70;4.43;;;10.40;88.20;;;;;;5036367;28;20658;-35
2022/04/28 02:33:19;;;;;;;9.20;4.77;;;10.40;88.10;;;;;;5029559;28;20221;-35
2022/04/28 02:35:21;;;;;;;8.93;4.73;;;10.40;88.30;;;;;;5047952;28;20220;-34
2022/04/28 02:37:48;;;;;;;7.80;4.57;;;10.30;88.20;;;;;;5047436;28;20201;-35
2022/04/28 02:40:16;;;;;;;9.50;4.97;;;10.30;88.50;;;;;;5032974;28;20207;-35
2022/04/28 02:42:43;;;;;;;11.43;4.40;;;10.30;88.30;;;;;;5040749;28;20556;-35
2022/04/28 02:45:10;;;;;;;13.07;5.00;;;10.20;88.10;;;;;;5043833;28;20204;-35
2022/04/28 02:47:38;;;;;;;9.03;4.77;;;10.20;88.20;;;;;;5048098;28;20602;-35
2022/04/28 02:50:05;;;;;;;9.87;4.73;;;10.20;88.10;;;;;;5049746;28;20209;-35
2022/04/28 02:52:33;;;;;;;9.13;4.53;;;10.20;88.80;;;;;;5044432;28;20259;-35
2022/04/28 02:55:00;;;;;;;12.10;4.80;;;10.10;88.30;;;;;;5034668;28;20239;-35
2022/04/28 02:57:27;;;;;;;9.87;4.80;;;10.10;88.60;;;;;;5034895;28;20278;-35
2022/04/28 02:59:54;;;;;;;11.97;5.60;;;10.10;88.40;;;;;;5037612;28;20560;-35
2022/04/28 03:02:21;;;;;;;11.47;4.60;;;10.10;88.20;;;;;;5035655;28;20232;-35
2022/04/28 03:04:51;;;;;;;9.73;5.37;;;10.10;88.20;;;;;;5040745;28;20230;-35
2022/04/28 03:13:00;;;;;;;9.77;4.60;;;10.00;88.20;;;;;;5042362;28;20247;-35
2022/04/28 03:15:30;;;;;;;10.73;5.30;;;10.00;88.10;;;;;;5029857;28;20714;-35
2022/04/28 03:17:57;;;;;;;8.73;4.57;;;10.00;88.30;;;;;;5047235;28;20216;-34
2022/04/28 03:20:26;;;;;;;9.57;5.50;;;9.90;89.20;;;;;;5047809;28;20200;-35
2022/04/28 03:22:53;;;;;;;13.83;5.40;;;9.90;89.40;;;;;;5048362;28;20331;-35
2022/04/28 03:25:21;;;;;;;9.77;5.17;;;9.90;89.30;;;;;;5044632;28;20761;-35
2022/04/28 03:27:48;;;;;;;9.67;4.90;;;9.90;89.30;;;;;;5043658;28;20793;-35
2022/04/28 03:30:15;;;;;;;9.70;5.00;;;9.90;89.50;;;;;;5043160;28;20283;-35
2022/04/28 03:32:45;;;;;;;12.70;5.83;;;9.90;89.50;;;;;;5037588;28;20221;-35
2022/04/28 03:35:12;;;;;;;10.33;5.63;;;9.80;89.50;;;;;;5037638;28;20248;-35
2022/04/28 03:37:46;;;;;;;10.43;4.87;;;9.80;89.60;;;;;;5048922;28;20266;-36
2022/04/28 03:40:14;;;;;;;8.67;5.13;;;9.80;89.50;;;;;;5053902;28;20195;-35
2022/04/28 03:42:41;;;;;;;10.93;5.53;;;9.80;89.70;;;;;;5037091;28;20200;-35
2022/04/28 03:45:11;;;;;;;9.23;5.17;;;9.80;89.70;;;;;;5046873;28;20484;-35
2022/04/28 03:47:39;;;;;;;8.27;5.30;;;9.80;89.80;;;;;;5032937;28;20239;-34
2022/04/28 03:50:07;;;;;;;9.20;4.93;;;9.70;89.60;;;;;;5032260;28;20212;-35
2022/04/28 03:52:34;;;;;;;7.77;5.30;;;9.70;89.70;;;;;;5045165;28;20234;-35
2022/04/28 03:55:05;;;;;;;9.37;5.30;;;9.70;89.60;;;;;;5040018;28;20287;-35
2022/04/28 03:57:34;;;;;;;9.47;5.70;;;9.70;89.80;;;;;;5028956;28;20205;-34
2022/04/28 04:00:05;;;;;;;7.73;5.33;;;9.70;89.60;;;;;;5034374;28;20242;-35
2022/04/28 04:02:32;;;;;;;10.23;5.53;;;9.70;89.80;;;;;;5027358;28;20217;-35
2022/04/28 04:05:00;;;;;;;8.40;5.27;;;9.60;89.80;;;;;;5028621;28;20627;-35
2022/04/28 04:07:33;;;;;;;10.77;5.73;;;9.60;89.90;;;;;;5029121;28;20201;-36
2022/04/28 04:10:01;;;;;;;10.10;5.40;;;9.60;90.00;;;;;;5031826;28;20295;-35
2022/04/28 04:12:28;;;;;;;11.13;5.87;;;9.50;89.60;;;;;;5041595;28;20216;-35
2022/04/28 04:14:57;;;;;;;9.73;6.20;;;9.50;89.70;;;;;;5047387;28;20207;-35
2022/04/28 04:17:25;;;;;;;10.43;6.33;;;9.50;89.70;;;;;;5046847;28;20204;-35
2022/04/28 04:19:52;;;;;;;9.73;5.90;;;9.50;89.70;;;;;;5045409;28;20212;-34
2022/04/28 04:22:19;;;;;;;11.37;5.83;;;9.50;89.90;;;;;;5047303;28;20218;-35
2022/04/28 04:24:46;;;;;;;13.93;6.07;;;9.50;90.00;;;;;;5035612;28;20626;-35
2022/04/28 04:27:15;;;;;;;11.67;5.90;;;9.50;90.10;;;;;;5028841;28;20300;-35
2022/04/28 04:29:42;;;;;;;13.67;6.13;;;9.40;90.00;;;;;;5043107;28;20212;-34
2022/04/28 04:32:27;;;;;;;10.43;6.53;;;9.40;90.00;;;;;;5046081;28;20227;-34
2022/04/28 04:34:57;;;;;;;13.93;6.37;;;9.40;89.90;;;;;;5046819;28;20192;-34
2022/04/28 04:37:26;;;;;;;11.13;5.83;;;9.40;90.00;;;;;;5027171;28;20201;-34
2022/04/28 04:39:56;;;;;;;13.53;6.17;;;9.40;90.00;;;;;;5056562;28;20748;-34
2022/04/28 04:42:23;;;;;;;12.70;6.37;;;9.40;89.90;;;;;;5041211;28;20208;-35
2022/04/28 04:44:50;;;;;;;12.83;6.50;;;9.40;90.00;;;;;;5048156;28;20204;-35
2022/04/28 04:47:18;;;;;;;12.90;6.50;;;9.40;90.00;;;;;;5030520;28;20799;-35
2022/04/28 04:49:47;;;;;;;9.00;6.53;;;9.40;90.00;;;;;;5046247;28;20718;-34
2022/04/28 04:52:16;;;;;;;9.97;5.70;;;9.40;90.10;;;;;;5046563;28;20246;-35
2022/04/28 04:54:44;;;;;;;12.03;6.40;;;9.40;90.10;;;;;;5045530;28;20263;-35
2022/04/28 04:57:11;;;;;;;14.80;6.30;;;9.40;90.10;;;;;;5040439;28;20212;-35
2022/04/28 04:59:41;;;;;;;11.90;6.17;;;9.40;90.30;;;;;;5029966;28;20211;-35
2022/04/28 05:02:10;;;;;;;15.03;6.63;;;9.40;90.50;;;;;;5045173;28;20204;-34
2022/04/28 05:04:40;;;;;;;12.63;6.43;;;9.40;90.20;;;;;;5042825;28;20251;-35
2022/04/28 05:07:07;;;;;;;12.23;6.10;;;9.40;90.20;;;;;;5039297;28;20580;-35
2022/04/28 05:09:37;;;;;;;12.13;6.63;;;9.40;90.20;;;;;;5030172;28;20279;-35
2022/04/28 05:12:05;;;;;;;9.30;5.93;;;9.40;90.30;;;;;;5031211;28;20311;-35
2022/04/28 05:14:38;;;;;;;12.10;7.00;;;9.40;90.20;;;;;;5038972;28;20265;-34
2022/04/28 05:17:07;;;;;;;12.47;7.03;;;9.40;90.60;;;;;;5024980;28;20382;-34
2022/04/28 05:19:34;;;;;;;15.40;7.00;;;9.50;90.40;;;;;;5040591;28;20215;-34
2022/04/28 05:22:01;;;;;;;10.93;7.03;;;9.50;90.40;;;;;;5046108;28;20211;-34
2022/04/28 05:24:31;;;;;;;14.60;6.90;;;9.50;90.40;;;;;;5046552;28;20220;-35
2022/04/28 05:26:58;;;;;;;14.13;7.03;;;9.50;90.60;;;;;;5034144;28;21007;-34
2022/04/28 05:29:25;;;;;;;10.97;6.97;;;9.50;90.50;;;;;;5039903;28;20200;-36
2022/04/28 05:31:52;;;;;;;10.03;6.93;;;9.60;90.50;;;;;;5042585;28;20223;-34
2022/04/28 05:34:20;;;;;;;9.83;6.23;;;9.60;90.50;;;;;;5036410;28;20201;-34
2022/04/28 05:36:48;;;;;;;12.27;7.43;;;9.60;90.60;;;;;;5030797;28;20255;-35
2022/04/28 05:39:19;;;;;;;16.03;7.27;;;9.70;90.60;;;;;;5051465;28;20757;-34
2022/04/28 05:41:47;;;;;;;11.47;7.23;;;9.70;90.60;;;;;;5046884;28;20220;-34
2022/04/28 05:47:03;;;;;;;12.47;7.53;;;9.70;90.70;;;;;;5048630;28;20204;-34
2022/04/28 05:49:31;;;;;;;13.40;7.90;;;9.80;90.70;;;;;;5049349;28;20598;-35
2022/04/28 05:51:59;;;;;;;14.60;7.57;;;9.80;90.80;;;;;;5038656;28;20244;-34
2022/04/28 05:54:26;;;;;;;11.43;7.53;;;9.80;90.80;;;;;;5030976;28;20274;-34
2022/04/28 05:56:59;;;;;;;15.10;7.30;;;9.90;90.80;;;;;;5040110;28;20216;-35
2022/04/28 05:59:26;;;;;;;12.73;8.10;;;9.90;90.80;;;;;;5039139;28;20730;-35
2022/04/28 06:01:53;;;;;;;13.40;7.70;;;9.90;90.90;;;;;;5047751;28;20231;-34
2022/04/28 06:04:20;;;;;;;11.90;7.93;;;10.00;90.30;;;;;;5045339;28;20212;-34
2022/04/28 06:06:48;;;;;;;13.90;8.17;;;10.00;90.70;;;;;;5030500;28;20216;-33
2022/04/28 06:09:15;;;;;;;14.87;9.43;;;10.00;90.70;;;;;;5036135;28;20216;-34
2022/04/28 06:11:43;;;;;;;15.27;8.73;;;10.10;90.70;;;;;;5040146;28;20579;-34
2022/04/28 06:14:10;;;;;;;14.93;9.00;;;10.10;90.50;;;;;;5045238;28;20295;-34
2022/04/28 06:16:38;;;;;;;17.83;8.80;;;10.10;90.70;;;;;;5050696;28;20227;-34
2022/04/28 06:19:05;;;;;;;16.00;8.60;;;10.20;90.60;;;;;;5037343;28;20212;-34
2022/04/28 06:21:33;;;;;;;14.67;8.77;;;10.20;90.70;;;;;;5029417;28;20643;-34
2022/04/28 06:24:02;;;;;;;15.07;8.23;;;10.20;90.60;;;;;;5016307;28;20208;-34
2022/04/28 06:26:30;;;;;;;14.40;9.67;;;10.30;90.70;;;;;;5030514;28;20217;-33
2022/04/28 06:28:59;;;;;;;18.23;9.97;;;10.30;91.00;;;;;;5030328;28;20193;-34
2022/04/28 06:31:29;;;;;;;15.73;9.57;;;10.30;91.10;;;;;;5028880;28;20193;-34
2022/04/28 06:34:01;;;;;;;12.70;8.57;;;10.30;91.10;;;;;;5044428;28;20537;-34
2022/04/28 06:36:28;;;;;;;15.00;9.23;;;10.30;90.80;;;;;;5028436;28;20252;-34
2022/04/28 06:38:55;;;;;;;17.30;9.77;;;10.40;90.90;;;;;;5042140;28;20199;-34
2022/04/28 06:41:25;;;;;;;17.87;10.13;;;10.40;91.00;;;;;;5037004;28;20626;-34
2022/04/28 06:43:53;;;;;;;16.93;9.73;;;10.50;91.20;;;;;;5038306;28;20208;-34
2022/04/28 06:46:20;;;;;;;16.23;9.53;;;10.50;91.10;;;;;;5042995;28;20211;-35
2022/04/28 06:48:47;;;;;;;16.60;9.83;;;10.50;91.00;;;;;;5048068;28;20230;-35
2022/04/28 06:51:15;;;;;;;18.30;10.53;;;10.50;91.00;;;;;;5049203;28;20204;-35
2022/04/28 06:53:42;;;;;;;17.43;10.43;;;10.60;91.20;;;;;;5038508;28;20228;-34
2022/04/28 06:56:09;;;;;;;17.07;10.23;;;10.70;91.40;;;;;;5034248;28;20248;-34
2022/04/28 06:58:37;;;;;;;14.50;10.00;;;10.70;91.10;;;;;;5038033;28;20307;-35
2022/04/28 07:01:05;;;;;;;14.40;9.53;;;10.70;91.40;;;;;;5045113;28;20313;-35
2022/04/28 07:03:33;;;;;;;16.17;9.63;;;10.80;91.30;;;;;;5046438;28;20215;-34
2022/04/28 07:06:01;;;;;;;15.87;10.33;;;10.80;91.30;;;;;;5045541;28;20231;-34
2022/04/28 07:08:30;;;;;;;16.93;11.03;;;10.90;91.50;;;;;;5044358;28;20223;-34
2022/04/28 07:10:57;;;;;;;16.10;10.70;;;10.90;91.60;;;;;;5029507;28;20217;-35
2022/04/28 07:13:27;;;;;;;20.27;11.27;;;11.00;91.50;;;;;;5031897;28;20232;-34
2022/04/28 07:16:00;;;;;;;14.70;10.17;;;11.00;91.90;;;;;;5030679;28;20235;-34
2022/04/28 07:18:28;;;;;;;14.03;10.00;;;11.00;91.50;;;;;;5028746;28;20221;-34
2022/04/28 07:21:03;;;;;;;14.37;10.00;;;11.10;91.50;;;;;;5029583;28;20691;-34
2022/04/28 07:23:37;;;;;;;18.27;11.10;;;11.10;91.60;;;;;;5028329;28;20219;-33
2022/04/28 07:26:05;;;;;;;14.47;10.07;;;11.20;91.60;;;;;;5032578;28;20201;-34
2022/04/28 07:28:32;;;;;;;17.37;11.67;;;11.30;91.60;;;;;;5046393;28;20224;-33
2022/04/28 07:31:01;;;;;;;15.67;10.27;;;11.40;91.80;;;;;;5046418;28;20242;-34
2022/04/28 07:33:29;;;;;;;17.00;11.47;;;11.40;91.60;;;;;;5027967;28;20746;-33
2022/04/28 07:35:56;;;;;;;17.20;10.00;;;11.50;91.80;;;;;;5033303;28;20262;-34
2022/04/28 07:38:23;;;;;;;17.27;11.60;;;11.50;91.70;;;;;;5050582;28;20621;-33
2022/04/28 07:40:53;;;;;;;19.27;11.00;;;11.60;91.80;;;;;;5048942;28;20290;-33
2022/04/28 07:43:25;;;;;;;13.90;9.40;;;11.60;91.80;;;;;;5039910;28;20323;-34
2022/04/28 07:45:52;;;;;;;18.60;10.57;;;11.70;91.80;;;;;;5045571;28;20259;-34
2022/04/28 07:48:20;;;;;;;17.00;10.87;;;11.80;91.90;;;;;;5038800;28;20307;-34
2022/04/28 07:50:50;;;;;;;16.70;10.77;;;11.90;92.00;;;;;;5026205;28;20884;-34
2022/04/28 07:53:18;;;;;;;13.00;10.37;;;12.00;92.10;;;;;;5032279;28;20569;-33
2022/04/28 07:56:10;;;;;;;18.43;12.03;;;12.00;92.00;;;;;;5039648;28;20240;-34
2022/04/28 07:58:35;;;;;;;14.73;10.97;;;12.10;92.30;;;;;;5038816;28;20215;-34
2022/04/28 08:01:02;;;;;;;14.53;9.77;;;12.20;92.20;;;;;;5032950;28;20618;-34
2022/04/28 08:03:30;;;;;;;18.73;11.27;;;12.30;92.20;;;;;;5047350;28;20224;-34
2022/04/28 08:05:58;;;;;;;17.03;11.00;;;12.40;92.30;;;;;;5027725;28;20216;-34
2022/04/28 08:08:25;;;;;;;16.37;11.37;;;12.50;92.30;;;;;;5027934;28;20286;-34
2022/04/28 08:10:55;;;;;;;17.50;12.37;;;12.50;92.30;;;;;;5029220;28;20217;-34
2022/04/28 08:13:25;;;;;;;22.37;12.90;;;12.60;92.40;;;;;;5026062;28;20668;-34
2022/04/28 08:15:57;;;;;;;17.43;10.63;;;12.70;92.40;;;;;;5026870;28;20215;-34
2022/04/28 08:18:29;;;;;;;19.03;11.37;;;12.70;92.50;;;;;;5040826;28;20343;-34
2022/04/28 08:20:58;;;;;;;16.50;12.27;;;12.80;92.50;;;;;;5046578;28;20744;-34
2022/04/28 08:23:25;;;;;;;16.40;12.17;;;12.80;92.60;;;;;;5045808;28;20739;-34
2022/04/28 08:25:53;;;;;;;16.20;11.75;;;12.90;92.50;;;;;;5040585;28;20263;-34
2022/04/28 08:28:20;;;;;;;15.77;12.60;;;13.00;92.60;;;;;;5028043;28;20217;-34
2022/04/28 08:30:50;;;;;;;15.40;11.13;;;13.00;92.60;;;;;;5027971;28;20223;-34
2022/04/28 08:33:17;;;;;;;18.80;12.50;;;13.00;92.60;;;;;;5025763;28;20224;-34
2022/04/28 08:35:45;;;;;;;18.23;11.30;;;13.10;92.60;;;;;;5031176;28;20997;-35
2022/04/28 08:38:12;;;;;;;16.83;11.57;;;13.20;92.70;;;;;;5040483;28;20201;-35
2022/04/28 08:40:42;;;;;;;14.40;9.80;;;13.30;92.70;;;;;;5032054;28;20584;-35
2022/04/28 08:43:11;;;;;;;15.87;11.40;;;13.40;92.70;;;;;;5026411;28;20599;-35
2022/04/28 08:48:48;;;;;;;15.90;10.80;;;13.50;92.80;;;;;;5028782;28;20216;-35
2022/04/28 08:51:20;;;;;;;19.70;12.00;;;13.60;92.80;;;;;;5028088;28;20209;-35
2022/04/28 08:53:49;;;;;;;14.83;11.13;;;13.70;92.90;;;;;;5028242;28;20271;-35
2022/04/28 08:56:18;;;;;;;15.47;10.40;;;13.80;92.90;;;;;;5042090;28;20652;-35
2022/04/28 08:58:48;;;;;;;15.67;11.07;;;13.80;92.90;;;;;;5026136;28;20228;-35
2022/04/28 09:01:16;;;;;;;13.27;11.37;;;13.90;92.90;;;;;;5035316;28;20201;-35
2022/04/28 09:03:43;;;;;;;17.50;11.27;;;14.00;92.90;;;;;;5046657;28;20214;-35
2022/04/28 09:06:35;;;;;;;18.97;13.00;;;14.00;92.90;;;;;;5047406;28;20270;-35
2022/04/28 09:09:08;;;;;;;16.70;10.93;;;14.10;92.90;;;;;;5041970;28;20220;-35
2022/04/28 09:11:37;;;;;;;16.17;11.10;;;14.20;93.00;;;;;;5038002;28;20211;-35
2022/04/28 09:14:12;;;;;;;17.00;11.77;;;14.20;93.00;;;;;;5049339;28;20259;-35
2022/04/28 09:16:47;;;;;;;16.20;11.57;;;14.30;93.00;;;;;;5052542;28;20206;-35
2022/04/28 09:19:15;;;;;;;18.27;11.10;;;14.30;93.00;;;;;;5053080;28;20199;-35
2022/04/28 09:21:43;;;;;;;19.07;9.93;;;14.40;93.00;;;;;;5038099;28;20652;-35
2022/04/28 09:24:11;;;;;;;18.17;11.30;;;14.50;93.10;;;;;;5037740;28;20216;-35
2022/04/28 09:26:39;;;;;;;15.13;10.73;;;14.60;93.10;;;;;;5046324;28;20303;-35
2022/04/28 09:29:12;;;;;;;14.20;10.75;;;14.60;93.10;;;;;;5035470;28;20590;-35
2022/04/28 09:31:41;;;;;;;15.60;9.85;;;14.70;93.20;;;;;;5030659;28;20235;-35
2022/04/28 09:34:29;;;;;;;14.47;9.53;;;14.80;93.30;;;;;;5031105;28;20651;-35
2022/04/28 09:37:01;;;;;;;14.83;9.93;;;14.90;93.40;;;;;;5034268;28;20209;-35
2022/04/28 09:42:39;;;;;;;13.55;10.88;;;15.10;93.50;;;;;;5058996;28;20228;-35
2022/04/28 09:45:08;;;;;;;14.63;11.17;;;15.20;93.50;;;;;;5040498;28;20573;-35
2022/04/28 09:47:36;;;;;;;12.95;9.45;;;15.20;93.40;;;;;;5044738;28;20224;-33
2022/04/28 09:50:17;;;;;;;12.02;9.57;;;15.30;93.60;;;;;;5032455;28;20200;-33
2022/04/28 09:52:52;;;;;;;9.63;8.63;;;15.40;93.70;;;;;;5031773;28;20307;-33
2022/04/28 09:55:20;;;;;;;15.27;10.60;;;15.50;94.00;;;;;;5032145;28;20324;-33
2022/04/28 09:57:48;;;;;;;15.63;11.77;;;15.50;93.40;;;;;;5033138;28;20189;-33
2022/04/28 10:00:16;;;;;;;17.48;11.10;;;15.60;93.30;;;;;;5031993;28;20579;-34
2022/04/28 10:02:44;;;;;;;12.65;11.25;;;15.60;93.30;;;;;;5035682;28;20521;-33
2022/04/28 10:05:14;;;;;;;16.40;10.65;;;15.70;93.40;;;;;;5040306;28;20216;-33
2022/04/28 10:07:42;;;;;;;14.45;10.48;;;15.80;93.50;;;;;;5043093;28;20274;-35
2022/04/28 10:10:09;;;;;;;17.40;12.23;;;15.80;93.30;;;;;;5042060;28;20248;-34
2022/04/28 10:12:40;;;;;;;14.32;10.57;;;15.90;93.10;;;;;;5030912;28;20332;-34
2022/04/28 10:15:09;;;;;;;14.90;10.43;;;15.90;93.40;;;;;;5042799;28;20311;-36
2022/04/28 10:18:11;;;;;;;14.98;11.20;;;16.00;93.30;;;;;;5034648;28;20303;-36
2022/04/28 10:20:41;;;;;;;12.77;9.20;;;16.00;93.30;;;;;;5033399;28;20207;-36
2022/04/28 10:35:01;;;;;;;15.82;11.32;;;16.30;93.60;;;;;;5037979;28;20221;-37
2022/04/28 10:38:03;;;;;;;15.60;11.48;;;16.40;93.40;;;;;;5030134;28;20236;-36
2022/04/28 10:40:41;;;;;;;12.57;8.80;;;16.40;93.50;;;;;;5042335;28;20212;-34
2022/04/28 10:43:24;;;;;;;14.13;9.50;;;16.50;93.70;;;;;;5046752;28;20196;-34
2022/04/28 10:45:56;;;;;;;15.43;10.70;;;16.50;93.70;;;;;;5049703;28;20196;-34
2022/04/28 10:48:33;;;;;;;13.80;10.20;;;16.60;93.20;;;;;;5041498;28;20205;-34
2022/04/28 10:51:01;;;;;;;12.70;9.35;;;16.60;93.50;;;;;;5028809;28;20213;-33
2022/04/28 10:53:28;;;;;;;12.32;10.02;;;16.60;93.50;;;;;;5039090;28;20251;-35
2022/04/28 10:55:55;;;;;;;11.25;9.77;;;16.70;93.50;;;;;;5027633;28;20300;-37
2022/04/28 10:58:26;;;;;;;15.23;11.73;;;16.80;93.40;;;;;;5029155;28;20221;-33
2022/04/28 11:00:56;;;;;;;14.02;10.32;;;16.80;93.10;;;;;;5029432;28;20303;-33
2022/04/28 11:03:54;;;;;;;14.40;10.63;;;16.80;93.40;;;;;;5027937;28;20204;-33
2022/04/28 11:06:29;;;;;;;14.75;10.20;;;16.90;93.20;;;;;;5027783;28;20256;-33
2022/04/28 11:08:59;;;;;;;12.07;9.75;;;16.90;93.20;;;;;;5029189;28;20307;-33
2022/04/28 11:11:43;;;;;;;13.45;9.55;;;16.90;93.20;;;;;;5029320;28;20215;-34
2022/04/28 11:14:11;;;;;;;11.98;8.70;;;17.00;93.40;;;;;;5027921;28;20747;-33
2022/04/28 11:16:41;;;;;;;13.98;9.85;;;17.00;93.50;;;;;;5027530;28;20279;-33
2022/04/28 11:19:10;;;;;;;13.73;10.20;;;17.10;93.30;;;;;;5029667;28;20713;-34
2022/04/28 11:21:41;;;;;;;15.20;10.52;;;17.10;93.30;;;;;;5028361;28;20675;-33
2022/04/28 11:24:09;;;;;;;11.73;8.88;;;17.10;92.70;;;;;;5027831;28;20201;-33
2022/04/28 11:26:37;;;;;;;11.55;9.35;;;17.20;93.40;;;;;;5027852;28;20286;-33
2022/04/28 11:29:06;;;;;;;16.73;11.85;;;17.20;93.20;;;;;;5029263;28;20205;-34
2022/04/28 11:31:36;;;;;;;11.10;9.55;;;17.30;92.70;;;;;;5032629;28;20204;-33
2022/04/28 11:34:05;;;;;;;10.50;9.38;;;17.30;93.20;;;;;;5044963;28;20274;-34
2022/04/28 11:36:37;;;;;;;13.00;8.13;;;17.40;93.10;;;;;;5036173;28;20229;-34
2022/04/28 11:39:04;;;;;;;12.25;9.73;;;17.40;93.30;;;;;;5030488;28;20682;-35
2022/04/28 11:41:35;;;;;;;14.80;8.98;;;17.40;93.10;;;;;;5029752;28;20213;-35
2022/04/28 11:44:10;;;;;;;10.95;8.93;;;17.50;93.30;;;;;;5029552;28;22708;-35
2022/04/28 11:46:49;;;;;;;10.80;8.45;;;17.60;93.50;;;;;;5035706;28;20257;-35
2022/04/28 11:49:18;;;;;;;13.60;10.00;;;17.60;93.50;;;;;;5031637;28;20682;-34
2022/04/28 11:51:46;;;;;;;11.50;10.15;;;17.60;92.90;;;;;;5045958;28;20220;-34
2022/04/28 11:54:23;;;;;;;10.80;8.77;;;17.60;93.00;;;;;;5044469;28;20252;-35
2022/04/28 11:56:51;;;;;;;15.63;9.95;;;17.70;92.80;;;;;;5025928;28;20231;-36
2022/04/28 11:59:19;;;;;;;10.25;7.95;;;17.70;92.90;;;;;;5031452;28;20216;-36
2022/04/28 12:01:47;;;;;;;13.55;9.55;;;17.70;93.40;;;;;;5031782;28;20196;-34
2022/04/28 12:04:16;;;;;;;19.75;10.30;;;17.80;93.00;;;;;;5036076;28;20686;-34
2022/04/28 12:06:48;;;;;;;13.38;8.98;;;17.80;93.00;;;;;;5042326;28;20207;-34
2022/04/28 12:15:09;;;;;;;11.02;8.15;;;18.00;93.10;;;;;;5064111;28;20227;-36
2022/04/28 12:20:56;;;;;;;11.10;8.55;;;18.10;93.00;;;;;;5030446;28;20209;-36
2022/04/28 12:23:34;;;;;;;11.95;9.93;;;18.20;92.90;;;;;;5039949;28;20322;-36
2022/04/28 12:26:06;;;;;;;15.15;9.05;;;18.20;92.90;;;;;;5045465;28;20281;-36
2022/04/28 12:28:39;;;;;;;14.35;9.95;;;18.20;93.30;;;;;;5034779;28;20266;-36
2022/04/28 12:31:12;;;;;;;12.43;9.80;;;18.20;93.00;;;;;;5027692;28;20209;-36
2022/04/28 12:34:07;;;;;;;12.00;8.60;;;18.30;93.00;;;;;;5029631;28;20239;-36
2022/04/28 12:36:58;;;;;;;10.43;6.43;;;18.30;93.40;;;;;;5039757;28;20757;-36
2022/04/28 12:39:31;;;;;;;15.25;10.05;;;18.40;93.60;;;;;;5041753;28;20295;-36
2022/04/28 12:42:09;;;;;;;9.93;7.82;;;18.40;92.90;;;;;;5041521;28;20270;-36
2022/04/28 12:44:44;;;;;;;10.45;7.93;;;18.50;93.40;;;;;;5033794;28;20211;-36
2022/04/28 12:47:12;;;;;;;10.30;7.40;;;18.60;93.60;;;;;;5027462;28;20426;-37
2022/04/28 12:49:48;;;;;;;9.38;7.05;;;18.60;93.70;;;;;;5028052;28;20213;-36
2022/04/28 12:52:26;;;;;;;9.15;7.57;;;18.70;93.80;;;;;;5027979;28;20243;-37
2022/04/28 12:55:03;;;;;;;13.43;10.40;;;18.80;93.80;;;;;;5036068;28;20223;-37
2022/04/28 12:57:31;;;;;;;14.40;9.23;;;18.90;93.70;;;;;;5046562;28;20211;-37
2022/04/28 13:00:07;;;;;;;13.50;10.50;;;18.90;93.80;;;;;;5045344;28;20269;-37
2022/04/28 13:02:37;;;;;;;15.18;9.38;;;18.90;93.50;;;;;;5032151;28;20215;-37
2022/04/28 13:05:17;;;;;;;10.05;8.43;;;18.90;93.60;;;;;;5025039;28;20200;-37
2022/04/28 13:08:02;;;;;;;10.05;8.82;;;19.00;93.00;;;;;;5036633;28;20212;-36
2022/04/28 13:10:30;;;;;;;10.68;8.50;;;19.00;93.60;;;;;;5031860;28;20212;-37
2022/04/28 13:12:57;;;;;;;11.63;9.35;;;19.00;93.80;;;;;;5045827;28;20208;-37
2022/04/28 13:15:24;;;;;;;10.25;7.97;;;19.10;93.60;;;;;;5030927;28;20726;-37
2022/04/28 13:17:52;;;;;;;12.85;7.55;;;19.20;94.00;;;;;;5040303;28;20220;-36
2022/04/28 13:20:22;;;;;;;11.88;9.15;;;19.20;94.00;;;;;;5038158;28;20216;-37
2022/04/28 13:22:52;;;;;;;13.02;7.68;;;19.30;93.60;;;;;;5027406;28;20296;-36
2022/04/28 13:25:20;;;;;;;9.77;8.75;;;19.40;93.90;;;;;;5027796;28;20602;-36
2022/04/28 13:27:50;;;;;;;13.35;10.15;;;19.40;93.60;;;;;;5026656;28;20692;-36
2022/04/28 13:30:17;;;;;;;13.45;8.95;;;19.40;92.70;;;;;;5032367;28;20197;-36
2022/04/28 13:32:44;;;;;;;12.70;10.23;;;19.50;93.60;;;;;;5044186;28;20593;-36